Time;durP1;ratioP1;P1;durP2;ratioP2;P2;SDS_P1;SDS_P2;PMS_P1;PMS_P2;Temp;Humidity;BMP_temperature;BMP_pressure;BME280_temperature;BME280_humidity;BME280_pressure;Samples;Min_cycle;Max_cycle;Signal;HPM_P1;HPM_P2
2023/12/21 00:00:06;;;;;;;24.00;4.45;;;10.40;99.90;;;;;;5063586;28;20238;-38
2023/12/21 00:02:32;;;;;;;21.30;4.18;;;10.40;99.90;;;;;;5066612;28;20186;-39
2023/12/21 00:04:58;;;;;;;19.95;3.92;;;10.40;99.90;;;;;;5064042;28;20202;-39
2023/12/21 00:07:24;;;;;;;26.70;4.00;;;10.40;99.90;;;;;;5064014;28;20186;-38
2023/12/21 00:09:50;;;;;;;25.63;3.95;;;10.40;99.90;;;;;;5065581;28;20643;-39
2023/12/21 00:12:16;;;;;;;26.42;4.43;;;10.40;99.90;;;;;;5063184;28;20182;-39
2023/12/21 00:14:42;;;;;;;23.02;4.35;;;10.40;99.90;;;;;;5064594;28;20343;-40
2023/12/21 00:17:08;;;;;;;19.95;3.85;;;10.40;99.90;;;;;;5063903;28;20196;-39
2023/12/21 00:19:34;;;;;;;20.65;4.10;;;10.40;99.90;;;;;;5063679;28;20227;-38
2023/12/21 00:22:00;;;;;;;24.10;4.10;;;10.40;99.90;;;;;;5063598;28;20605;-38
2023/12/21 00:24:26;;;;;;;23.00;3.95;;;10.40;99.90;;;;;;5059723;28;20222;-39
2023/12/21 00:26:52;;;;;;;23.00;4.32;;;10.40;99.90;;;;;;5064578;28;20190;-39
2023/12/21 00:29:18;;;;;;;24.30;4.43;;;10.50;99.90;;;;;;5063851;28;20217;-38
2023/12/21 00:31:43;;;;;;;23.05;4.10;;;10.50;99.90;;;;;;5061748;28;20614;-38
2023/12/21 00:34:09;;;;;;;24.25;4.07;;;10.50;99.90;;;;;;5063675;28;20186;-40
2023/12/21 00:36:35;;;;;;;19.75;4.07;;;10.50;99.90;;;;;;5065159;28;20207;-40
2023/12/21 00:39:01;;;;;;;26.80;4.38;;;10.50;99.90;;;;;;5064258;28;20297;-39
2023/12/21 00:41:27;;;;;;;17.25;3.67;;;10.50;99.90;;;;;;5045451;28;20199;-37
2023/12/21 00:43:53;;;;;;;20.65;4.25;;;10.50;99.90;;;;;;5064041;28;20187;-38
2023/12/21 00:46:19;;;;;;;15.15;3.40;;;10.60;99.90;;;;;;5064938;28;20297;-38
2023/12/21 00:48:45;;;;;;;23.60;4.47;;;10.60;99.90;;;;;;5063703;28;20225;-41
2023/12/21 00:51:12;;;;;;;30.77;3.92;;;10.60;99.90;;;;;;5064686;28;20195;-37
2023/12/21 00:53:37;;;;;;;20.65;3.97;;;10.60;99.90;;;;;;5064450;28;20186;-39
2023/12/21 00:56:03;;;;;;;18.75;4.00;;;10.60;99.90;;;;;;5064260;28;20647;-37
2023/12/21 00:58:29;;;;;;;13.77;3.15;;;10.60;99.90;;;;;;5063923;28;20239;-37
2023/12/21 01:00:55;;;;;;;22.27;3.88;;;10.60;99.90;;;;;;5063102;28;20191;-37
2023/12/21 01:03:21;;;;;;;19.02;4.00;;;10.60;99.90;;;;;;5063713;28;20205;-38
2023/12/21 01:05:47;;;;;;;20.10;4.35;;;10.60;99.90;;;;;;5065040;28;20190;-37
2023/12/21 01:08:13;;;;;;;21.83;4.93;;;10.60;99.90;;;;;;5062818;28;20193;-39
2023/12/21 01:10:39;;;;;;;26.50;5.13;;;10.60;99.90;;;;;;5062772;28;20197;-38
2023/12/21 01:13:06;;;;;;;27.15;5.80;;;10.60;99.90;;;;;;5064556;28;20200;-38
2023/12/21 01:15:32;;;;;;;27.45;5.10;;;10.60;99.90;;;;;;5062080;28;20662;-41
2023/12/21 01:17:58;;;;;;;22.05;5.40;;;10.60;99.90;;;;;;5062906;28;20199;-40
2023/12/21 01:20:24;;;;;;;20.17;5.07;;;10.60;99.90;;;;;;5063656;28;20233;-39
2023/12/21 01:22:49;;;;;;;29.35;6.07;;;10.60;99.90;;;;;;5063034;28;20187;-42
2023/12/21 01:25:15;;;;;;;20.27;5.25;;;10.60;99.90;;;;;;5048996;28;20186;-39
2023/12/21 01:27:41;;;;;;;24.23;5.38;;;10.60;99.90;;;;;;5064045;28;20208;-38
2023/12/21 01:30:08;;;;;;;27.52;6.90;;;10.60;99.90;;;;;;5063207;28;20190;-39
2023/12/21 01:32:34;;;;;;;24.73;4.85;;;10.60;99.90;;;;;;5078852;28;20194;-38
2023/12/21 01:35:00;;;;;;;28.80;5.75;;;10.50;99.90;;;;;;5062786;28;20186;-38
2023/12/21 01:37:26;;;;;;;19.52;4.82;;;10.50;99.90;;;;;;5063208;28;20303;-39
2023/12/21 01:39:52;;;;;;;30.40;5.28;;;10.50;99.90;;;;;;5063730;28;20210;-38
2023/12/21 01:42:19;;;;;;;23.20;5.05;;;10.50;99.90;;;;;;5062714;28;20670;-41
2023/12/21 01:44:45;;;;;;;24.33;4.97;;;10.50;99.90;;;;;;5062289;28;20179;-39
2023/12/21 01:47:12;;;;;;;22.73;4.65;;;10.50;99.90;;;;;;5061952;28;20205;-37
2023/12/21 01:49:39;;;;;;;24.98;4.82;;;10.40;99.90;;;;;;5062977;28;20194;-39
2023/12/21 01:52:06;;;;;;;24.23;4.90;;;10.40;99.90;;;;;;5062533;28;20186;-39
2023/12/21 01:54:32;;;;;;;21.00;5.15;;;10.40;99.90;;;;;;5062236;28;20194;-40
2023/12/21 01:56:58;;;;;;;24.23;4.57;;;10.40;99.90;;;;;;5063532;28;20197;-40
2023/12/21 01:59:25;;;;;;;22.75;4.55;;;10.40;99.90;;;;;;5062548;28;20214;-41
2023/12/21 02:01:51;;;;;;;16.90;4.57;;;10.40;99.90;;;;;;5062658;28;22341;-38
2023/12/21 02:04:17;;;;;;;21.25;4.93;;;10.30;99.90;;;;;;5063402;28;20182;-40
2023/12/21 02:06:43;;;;;;;27.63;5.60;;;10.30;99.90;;;;;;5063480;28;21330;-38
2023/12/21 02:09:09;;;;;;;22.60;4.93;;;10.30;99.90;;;;;;5062842;28;20224;-39
2023/12/21 02:11:35;;;;;;;21.02;5.35;;;10.30;99.90;;;;;;5061476;28;20194;-40
2023/12/21 02:14:02;;;;;;;15.07;4.72;;;10.30;99.90;;;;;;5062336;28;20209;-38
2023/12/21 02:16:56;;;;;;;21.67;5.53;;;10.20;99.90;;;;;;5061920;28;20683;-41
2023/12/21 02:19:23;;;;;;;22.92;5.60;;;10.30;99.90;;;;;;5060732;28;20655;-40
2023/12/21 02:21:51;;;;;;;20.65;4.82;;;10.20;99.90;;;;;;5061303;28;20183;-40
2023/12/21 02:24:18;;;;;;;15.30;5.03;;;10.20;99.90;;;;;;5061815;28;20182;-38
2023/12/21 02:26:44;;;;;;;21.67;4.85;;;10.20;99.90;;;;;;5063352;28;20727;-38
2023/12/21 02:29:10;;;;;;;21.00;5.53;;;10.20;99.90;;;;;;5063042;28;20244;-38
2023/12/21 02:31:37;;;;;;;23.77;5.32;;;10.20;99.90;;;;;;5062573;28;20203;-37
2023/12/21 02:34:06;;;;;;;23.42;5.30;;;10.20;99.90;;;;;;5062700;28;20186;-41
2023/12/21 02:36:32;;;;;;;18.02;5.18;;;10.20;99.90;;;;;;5062161;28;20223;-39
2023/12/21 02:38:58;;;;;;;30.50;5.90;;;10.20;99.90;;;;;;5062857;28;20309;-38
2023/12/21 02:41:24;;;;;;;21.17;5.40;;;10.20;99.90;;;;;;5062615;28;20193;-38
2023/12/21 02:43:50;;;;;;;18.02;5.45;;;10.20;99.90;;;;;;5059759;28;20190;-37
2023/12/21 02:46:18;;;;;;;26.55;5.82;;;10.20;99.90;;;;;;5062895;28;20187;-40
2023/12/21 02:48:44;;;;;;;18.88;5.00;;;10.20;99.90;;;;;;5062914;28;20190;-37
2023/12/21 02:51:10;;;;;;;24.15;5.78;;;10.20;99.90;;;;;;5058536;28;20203;-40
2023/12/21 02:53:37;;;;;;;25.67;6.22;;;10.20;99.90;;;;;;5076931;28;20190;-38
2023/12/21 02:56:03;;;;;;;19.67;5.80;;;10.20;99.90;;;;;;5063700;28;20197;-40
2023/12/21 02:58:29;;;;;;;20.02;5.93;;;10.20;99.90;;;;;;5061340;28;20235;-39
2023/12/21 03:00:55;;;;;;;20.73;5.32;;;10.20;99.90;;;;;;5059952;28;20195;-37
2023/12/21 03:03:21;;;;;;;16.67;4.82;;;10.20;99.90;;;;;;5061724;28;20711;-40
2023/12/21 03:05:47;;;;;;;20.02;5.30;;;10.20;99.90;;;;;;5061837;28;20551;-40
2023/12/21 03:08:13;;;;;;;19.25;5.22;;;10.20;99.90;;;;;;5062167;28;20586;-37
2023/12/21 03:10:39;;;;;;;23.92;5.35;;;10.20;99.90;;;;;;5062153;28;20186;-38
2023/12/21 03:13:05;;;;;;;16.75;4.80;;;10.20;99.90;;;;;;5062035;28;20717;-38
2023/12/21 03:15:31;;;;;;;21.20;5.88;;;10.20;99.90;;;;;;5062186;28;20186;-39
2023/12/21 03:17:57;;;;;;;15.10;4.82;;;10.20;99.90;;;;;;5060090;28;20191;-39
2023/12/21 03:20:23;;;;;;;16.67;4.80;;;10.20;99.90;;;;;;5061699;28;20229;-38
2023/12/21 03:22:49;;;;;;;18.40;5.03;;;10.20;99.90;;;;;;5062462;28;20909;-39
2023/12/21 03:25:15;;;;;;;22.52;5.30;;;10.20;99.90;;;;;;5060128;28;20186;-40
2023/12/21 03:27:41;;;;;;;22.95;5.28;;;10.20;99.90;;;;;;5061373;28;20315;-40
2023/12/21 03:30:07;;;;;;;22.75;5.53;;;10.20;99.90;;;;;;5062598;28;20277;-39
2023/12/21 03:32:35;;;;;;;20.00;5.25;;;10.20;99.90;;;;;;5061042;28;20186;-37
2023/12/21 03:35:01;;;;;;;14.15;4.57;;;10.20;99.90;;;;;;5060870;28;20194;-38
2023/12/21 03:37:28;;;;;;;21.17;4.80;;;10.20;99.90;;;;;;5043264;28;20194;-37
2023/12/21 03:39:56;;;;;;;20.58;4.72;;;10.20;99.90;;;;;;5062166;28;20202;-38
2023/12/21 03:42:22;;;;;;;19.33;5.70;;;10.20;99.90;;;;;;5062088;28;20183;-41
2023/12/21 03:44:48;;;;;;;18.67;5.15;;;10.20;99.90;;;;;;5061550;28;20189;-40
2023/12/21 03:47:14;;;;;;;16.48;5.20;;;10.20;99.90;;;;;;5062229;28;20182;-42
2023/12/21 03:49:40;;;;;;;19.65;5.20;;;10.20;99.90;;;;;;5061099;28;20209;-39
2023/12/21 03:52:06;;;;;;;14.32;4.68;;;10.30;99.90;;;;;;5059294;28;20237;-39
2023/12/21 03:54:32;;;;;;;31.00;5.88;;;10.30;99.90;;;;;;5063663;28;20215;-39
2023/12/21 03:56:58;;;;;;;18.63;5.90;;;10.30;99.90;;;;;;5064915;28;20213;-38
2023/12/21 03:59:24;;;;;;;15.10;5.20;;;10.20;99.90;;;;;;5065023;28;20678;-39
2023/12/21 04:01:51;;;;;;;16.95;5.35;;;10.30;99.90;;;;;;5063520;28;20185;-38
2023/12/21 04:04:17;;;;;;;18.83;5.10;;;10.30;99.90;;;;;;5080468;28;20186;-37
2023/12/21 04:06:43;;;;;;;20.45;5.78;;;10.20;99.90;;;;;;5064598;28;20202;-40
2023/12/21 04:09:10;;;;;;;23.73;4.82;;;10.20;99.90;;;;;;5065150;28;20195;-40
2023/12/21 04:11:35;;;;;;;14.63;3.75;;;10.20;99.90;;;;;;5064959;28;20191;-39
2023/12/21 04:14:01;;;;;;;19.55;4.70;;;10.20;99.90;;;;;;5064672;28;20197;-39
2023/12/21 04:16:27;;;;;;;18.25;4.63;;;10.20;99.90;;;;;;5064862;28;20999;-40
2023/12/21 04:18:53;;;;;;;11.68;3.75;;;10.20;99.90;;;;;;5062051;28;20221;-39
2023/12/21 04:21:19;;;;;;;19.52;4.78;;;10.20;99.90;;;;;;5065111;28;21373;-39
2023/12/21 04:23:46;;;;;;;21.65;4.70;;;10.20;99.90;;;;;;5065537;28;20321;-37
2023/12/21 04:26:22;;;;;;;19.25;4.47;;;10.20;99.90;;;;;;5063886;28;20252;-38
2023/12/21 04:28:51;;;;;;;19.60;5.07;;;10.20;99.90;;;;;;5064034;28;20209;-39
2023/12/21 04:31:21;;;;;;;19.90;4.85;;;10.10;99.90;;;;;;5065300;28;20186;-39
2023/12/21 04:33:50;;;;;;;21.98;4.53;;;10.20;99.90;;;;;;5062320;28;20194;-40
2023/12/21 04:36:16;;;;;;;21.55;5.30;;;10.20;99.90;;;;;;5063371;28;20186;-39
2023/12/21 04:38:42;;;;;;;18.58;4.90;;;10.20;99.90;;;;;;5062004;28;20924;-40
2023/12/21 04:41:08;;;;;;;21.48;4.35;;;10.10;99.90;;;;;;5058740;28;20198;-40
2023/12/21 04:43:34;;;;;;;15.55;4.05;;;10.10;99.90;;;;;;5061856;28;20244;-39
2023/12/21 04:46:00;;;;;;;17.42;4.68;;;10.20;99.90;;;;;;5065178;28;20182;-38
2023/12/21 04:48:26;;;;;;;18.55;4.57;;;10.10;99.90;;;;;;5063583;28;20242;-38
2023/12/21 04:50:52;;;;;;;16.85;4.05;;;10.10;99.90;;;;;;5063986;28;20269;-38
2023/12/21 04:53:18;;;;;;;17.90;4.78;;;10.10;99.90;;;;;;5063706;28;20202;-37
2023/12/21 04:55:44;;;;;;;17.52;4.43;;;10.10;99.90;;;;;;5064339;28;20205;-40
2023/12/21 04:58:10;;;;;;;15.13;4.10;;;10.10;99.90;;;;;;5064227;28;20194;-39
2023/12/21 05:00:40;;;;;;;15.50;4.38;;;10.10;99.90;;;;;;5062516;28;20190;-37
2023/12/21 05:03:06;;;;;;;18.17;4.05;;;10.10;99.90;;;;;;5061374;28;20784;-41
2023/12/21 05:05:32;;;;;;;12.27;3.25;;;10.00;99.90;;;;;;5063200;28;20232;-39
2023/12/21 05:07:58;;;;;;;14.30;4.18;;;10.10;99.90;;;;;;5062793;28;20198;-39
2023/12/21 05:10:24;;;;;;;15.45;3.90;;;10.00;99.90;;;;;;5064499;28;20200;-38
2023/12/21 05:12:51;;;;;;;13.85;4.20;;;10.10;99.90;;;;;;5065057;28;20278;-39
2023/12/21 05:15:17;;;;;;;17.55;4.70;;;10.10;99.90;;;;;;5063161;28;20191;-39
2023/12/21 05:17:42;;;;;;;24.38;5.45;;;10.10;99.90;;;;;;5062022;28;20202;-38
2023/12/21 05:20:09;;;;;;;21.40;4.85;;;10.10;99.90;;;;;;5062863;28;20221;-39
2023/12/21 05:22:35;;;;;;;15.80;4.90;;;10.10;99.90;;;;;;5078273;28;20191;-38
2023/12/21 05:25:01;;;;;;;15.68;5.07;;;10.10;99.90;;;;;;5062928;28;20677;-40
2023/12/21 05:27:27;;;;;;;14.27;4.18;;;10.10;99.90;;;;;;5060946;28;20665;-39
2023/12/21 05:29:53;;;;;;;26.00;4.88;;;10.20;99.90;;;;;;5063415;28;20193;-39
2023/12/21 05:32:19;;;;;;;19.70;4.88;;;10.10;99.90;;;;;;5062381;28;20197;-37
2023/12/21 05:34:45;;;;;;;20.52;4.30;;;10.10;99.90;;;;;;5062481;28;20564;-38
2023/12/21 05:37:11;;;;;;;19.48;4.75;;;10.10;99.90;;;;;;5062517;28;20270;-38
2023/12/21 05:39:38;;;;;;;15.77;3.97;;;10.10;99.90;;;;;;5063866;28;20653;-41
2023/12/21 05:42:04;;;;;;;14.82;4.47;;;10.10;99.90;;;;;;5063072;28;20193;-39
2023/12/21 05:44:30;;;;;;;19.27;4.47;;;10.10;99.90;;;;;;5062077;28;20631;-40
2023/12/21 05:46:56;;;;;;;11.93;3.28;;;10.10;99.90;;;;;;5062586;28;20194;-39
2023/12/21 05:49:22;;;;;;;15.60;3.97;;;10.10;99.90;;;;;;5062641;28;20894;-40
2023/12/21 05:51:48;;;;;;;23.40;4.25;;;10.10;99.90;;;;;;5062278;28;20285;-39
2023/12/21 05:54:15;;;;;;;17.08;3.72;;;10.10;99.90;;;;;;5063237;28;20195;-39
2023/12/21 05:56:41;;;;;;;18.85;4.03;;;10.10;99.90;;;;;;5062013;28;20212;-40
2023/12/21 05:59:10;;;;;;;21.77;3.45;;;10.10;99.90;;;;;;5062758;28;20293;-39
2023/12/21 06:01:36;;;;;;;14.63;2.97;;;10.10;99.90;;;;;;5062188;28;20650;-41
2023/12/21 06:04:02;;;;;;;16.45;3.92;;;10.10;99.90;;;;;;5062895;28;20183;-40
2023/12/21 06:06:27;;;;;;;16.00;3.33;;;10.10;99.90;;;;;;5061681;28;20183;-36
2023/12/21 06:08:53;;;;;;;21.77;3.78;;;10.10;99.90;;;;;;5062600;28;20197;-41
2023/12/21 06:11:19;;;;;;;22.65;3.47;;;10.10;99.90;;;;;;5061075;28;20194;-40
2023/12/21 06:13:45;;;;;;;21.38;4.18;;;10.10;99.90;;;;;;5063257;28;20190;-39
2023/12/21 06:16:12;;;;;;;10.95;3.00;;;10.10;99.90;;;;;;5058655;28;20204;-39
2023/12/21 06:18:39;;;;;;;21.10;3.97;;;10.10;99.90;;;;;;5062388;28;20206;-38
2023/12/21 06:21:05;;;;;;;20.25;4.18;;;10.10;99.90;;;;;;5061942;28;20233;-38
2023/12/21 06:23:31;;;;;;;11.05;3.20;;;10.10;99.90;;;;;;5062211;28;20186;-40
2023/12/21 06:25:57;;;;;;;20.80;4.70;;;10.10;99.90;;;;;;5063073;28;21201;-39
2023/12/21 06:28:23;;;;;;;17.25;4.40;;;10.10;99.90;;;;;;5063229;28;20182;-40
2023/12/21 06:30:49;;;;;;;26.45;4.45;;;10.20;99.90;;;;;;5059316;28;20628;-41
2023/12/21 06:33:14;;;;;;;15.02;3.97;;;10.20;99.90;;;;;;5061810;28;20700;-38
2023/12/21 06:35:40;;;;;;;12.20;3.45;;;10.20;99.90;;;;;;5062018;28;20623;-39
2023/12/21 06:38:06;;;;;;;15.23;4.38;;;10.20;99.90;;;;;;5061370;28;20187;-39
2023/12/21 06:40:32;;;;;;;16.95;4.13;;;10.20;99.90;;;;;;5078986;28;20651;-39
2023/12/21 06:42:58;;;;;;;13.32;3.13;;;10.20;99.90;;;;;;5061390;28;20182;-40
2023/12/21 06:45:25;;;;;;;16.45;3.15;;;10.20;99.90;;;;;;5060995;28;21195;-40
2023/12/21 06:47:51;;;;;;;12.73;3.38;;;10.10;99.90;;;;;;5063404;28;20334;-40
2023/12/21 06:50:17;;;;;;;19.05;4.10;;;10.10;99.90;;;;;;5060509;28;20190;-39
2023/12/21 06:52:42;;;;;;;20.13;3.45;;;10.10;99.90;;;;;;5062024;28;20221;-40
2023/12/21 06:55:08;;;;;;;14.00;4.20;;;10.00;99.90;;;;;;5061390;28;20658;-39
2023/12/21 06:57:34;;;;;;;11.80;3.55;;;10.00;99.90;;;;;;5060666;28;20623;-39
2023/12/21 07:00:00;;;;;;;14.90;4.10;;;10.00;99.90;;;;;;5060666;28;20225;-38
2023/12/21 07:02:26;;;;;;;11.93;3.70;;;10.00;99.90;;;;;;5060857;28;20179;-40
2023/12/21 07:04:52;;;;;;;13.43;3.83;;;10.00;99.90;;;;;;5059442;28;20195;-39
2023/12/21 07:07:18;;;;;;;12.15;3.60;;;10.00;99.90;;;;;;5062188;28;20306;-40
2023/12/21 07:09:44;;;;;;;9.23;4.30;;;9.90;99.90;;;;;;5061179;28;20610;-39
2023/12/21 07:12:10;;;;;;;12.30;4.30;;;9.90;99.90;;;;;;5060653;28;20196;-39
2023/12/21 07:14:40;;;;;;;9.88;2.90;;;9.90;99.90;;;;;;5061088;28;20222;-39
2023/12/21 07:17:07;;;;;;;6.60;2.47;;;9.90;99.90;;;;;;5060806;28;20298;-38
2023/12/21 07:19:33;;;;;;;6.90;2.85;;;9.90;99.90;;;;;;5060611;28;20280;-41
2023/12/21 07:21:59;;;;;;;8.18;2.53;;;9.90;99.90;;;;;;5060437;28;20231;-41
2023/12/21 07:24:24;;;;;;;12.82;3.08;;;9.80;99.90;;;;;;5061168;28;20179;-39
2023/12/21 07:26:50;;;;;;;9.82;3.90;;;9.80;99.90;;;;;;5061117;28;20297;-38
2023/12/21 07:29:17;;;;;;;6.95;3.47;;;9.80;99.90;;;;;;5063521;28;20240;-38
2023/12/21 07:31:43;;;;;;;12.52;3.42;;;9.80;99.90;;;;;;5064521;28;20194;-40
2023/12/21 07:34:09;;;;;;;12.27;3.80;;;9.80;99.90;;;;;;5066565;28;20209;-39
2023/12/21 07:36:34;;;;;;;9.63;2.80;;;9.80;99.90;;;;;;5064440;28;20218;-40
2023/12/21 07:39:00;;;;;;;6.75;3.30;;;9.80;99.90;;;;;;5063578;28;20302;-41
2023/12/21 07:41:26;;;;;;;12.48;3.80;;;9.80;99.90;;;;;;5064936;28;21346;-44
2023/12/21 07:43:52;;;;;;;11.05;3.40;;;9.80;99.90;;;;;;5063386;28;20259;-40
2023/12/21 07:46:18;;;;;;;16.02;4.10;;;9.80;99.90;;;;;;5064015;28;20186;-39
2023/12/21 07:48:44;;;;;;;9.23;2.63;;;9.80;99.90;;;;;;5064686;28;20186;-41
2023/12/21 07:51:13;;;;;;;10.88;3.83;;;9.80;99.90;;;;;;5063091;28;20551;-41
2023/12/21 07:53:39;;;;;;;17.42;3.40;;;9.80;99.90;;;;;;5064213;28;20227;-40
2023/12/21 07:56:05;;;;;;;15.95;4.07;;;9.80;99.90;;;;;;5064919;28;20294;-40
2023/12/21 07:58:31;;;;;;;10.55;2.72;;;9.80;99.90;;;;;;5064384;28;20237;-40
2023/12/21 08:00:57;;;;;;;13.77;3.28;;;9.90;99.90;;;;;;5063449;28;20236;-43
2023/12/21 08:03:23;;;;;;;14.90;3.22;;;9.90;99.90;;;;;;5066084;28;20673;-41
2023/12/21 08:05:49;;;;;;;14.85;3.50;;;9.90;99.90;;;;;;5064913;28;20195;-43
2023/12/21 08:08:15;;;;;;;11.40;3.17;;;9.90;99.90;;;;;;5064800;28;20627;-41
2023/12/21 08:10:41;;;;;;;19.33;5.45;;;9.90;99.90;;;;;;5065026;28;20195;-40
2023/12/21 08:13:09;;;;;;;18.00;4.32;;;9.90;99.90;;;;;;5064778;28;20189;-40
2023/12/21 08:15:35;;;;;;;16.55;5.00;;;9.90;99.90;;;;;;5060041;28;20285;-41
2023/12/21 08:18:02;;;;;;;16.83;5.25;;;9.90;99.90;;;;;;5063862;28;20642;-42
2023/12/21 08:20:29;;;;;;;19.45;6.50;;;9.90;99.90;;;;;;5063020;28;20829;-40
2023/12/21 08:22:58;;;;;;;22.15;5.78;;;9.90;99.90;;;;;;5062878;28;20215;-42
2023/12/21 08:25:24;;;;;;;20.33;5.63;;;9.90;99.90;;;;;;5062089;28;20269;-40
2023/12/21 08:27:50;;;;;;;23.73;5.82;;;10.00;99.90;;;;;;5062112;28;20202;-39
2023/12/21 08:30:16;;;;;;;17.95;5.65;;;10.00;99.90;;;;;;5065789;28;20197;-41
2023/12/21 08:32:42;;;;;;;22.15;5.53;;;10.00;99.90;;;;;;5061741;28;20201;-39
2023/12/21 08:35:08;;;;;;;28.30;6.65;;;10.00;99.90;;;;;;5045761;28;20225;-40
2023/12/21 08:37:34;;;;;;;29.98;5.82;;;10.00;99.90;;;;;;5064103;28;20186;-40
2023/12/21 08:39:59;;;;;;;26.90;5.60;;;10.00;99.90;;;;;;5062849;28;20225;-40
2023/12/21 08:42:30;;;;;;;31.45;4.97;;;10.00;99.90;;;;;;5062908;28;20218;-41
2023/12/21 08:44:59;;;;;;;33.20;5.10;;;10.00;99.90;;;;;;5064915;28;20194;-40
2023/12/21 08:47:26;;;;;;;33.72;5.38;;;10.00;99.90;;;;;;5063096;28;20723;-40
2023/12/21 08:49:52;;;;;;;19.75;4.13;;;10.10;99.90;;;;;;5062121;28;20252;-39
2023/12/21 08:52:18;;;;;;;14.73;3.55;;;10.10;99.90;;;;;;5065255;28;20202;-38
2023/12/21 08:54:47;;;;;;;27.08;5.40;;;10.10;99.90;;;;;;5062993;28;20210;-40
2023/12/21 08:57:13;;;;;;;14.65;4.00;;;10.10;99.90;;;;;;5064620;28;20304;-38
2023/12/21 08:59:38;;;;;;;19.52;3.17;;;10.10;99.90;;;;;;5064824;28;20210;-39
2023/12/21 09:02:04;;;;;;;25.77;5.13;;;10.20;99.90;;;;;;5056287;28;20993;-40
2023/12/21 09:04:30;;;;;;;19.75;4.15;;;10.20;99.90;;;;;;5061904;28;20190;-39
2023/12/21 09:06:56;;;;;;;17.33;3.13;;;10.20;99.90;;;;;;5064950;28;20236;-40
2023/12/21 09:09:22;;;;;;;15.00;3.05;;;10.20;99.90;;;;;;5062060;28;20676;-39
2023/12/21 09:11:49;;;;;;;20.23;3.58;;;10.30;99.90;;;;;;5063970;28;20209;-39
2023/12/21 09:14:15;;;;;;;15.63;3.03;;;10.30;99.90;;;;;;5063834;28;20197;-42
2023/12/21 09:16:41;;;;;;;29.42;4.28;;;10.30;99.90;;;;;;5060778;28;20190;-38
2023/12/21 09:19:07;;;;;;;21.45;4.05;;;10.30;99.90;;;;;;5063501;28;20214;-40
2023/12/21 09:21:36;;;;;;;18.77;3.55;;;10.40;99.90;;;;;;5079153;28;20599;-39
2023/12/21 09:24:02;;;;;;;17.90;3.25;;;10.40;99.90;;;;;;5062324;28;20187;-42
2023/12/21 09:26:28;;;;;;;19.23;4.03;;;10.40;99.90;;;;;;5062196;28;20307;-40
2023/12/21 09:28:54;;;;;;;32.05;4.78;;;10.50;99.90;;;;;;5063889;28;20190;-40
2023/12/21 09:31:21;;;;;;;28.88;4.50;;;10.40;99.90;;;;;;5063207;28;20179;-39
2023/12/21 09:33:47;;;;;;;24.55;4.15;;;10.40;99.90;;;;;;5060632;28;20191;-39
2023/12/21 09:36:15;;;;;;;29.00;3.72;;;10.40;99.90;;;;;;5062502;28;20191;-39
2023/12/21 09:38:41;;;;;;;31.80;4.55;;;10.50;99.90;;;;;;5061991;28;20221;-39
2023/12/21 09:41:07;;;;;;;16.98;3.60;;;10.50;99.90;;;;;;5062771;28;20239;-40
2023/12/21 09:43:35;;;;;;;29.38;3.83;;;10.50;99.90;;;;;;5060555;28;20277;-40
2023/12/21 09:46:01;;;;;;;18.67;3.33;;;10.50;99.90;;;;;;5061951;28;20198;-39
2023/12/21 09:48:30;;;;;;;25.88;3.30;;;10.60;99.90;;;;;;5061712;28;20292;-41
2023/12/21 09:51:02;;;;;;;28.38;4.30;;;10.60;99.90;;;;;;5062136;28;20198;-40
2023/12/21 09:53:30;;;;;;;20.55;3.95;;;10.60;99.90;;;;;;5062663;28;20714;-39
2023/12/21 09:55:57;;;;;;;19.85;3.13;;;10.60;99.90;;;;;;5060412;28;20269;-42
2023/12/21 09:58:23;;;;;;;21.75;3.67;;;10.60;99.90;;;;;;5062011;28;20191;-38
2023/12/21 10:00:49;;;;;;;32.58;4.28;;;10.70;99.90;;;;;;5063464;28;20248;-40
2023/12/21 10:03:16;;;;;;;24.15;3.75;;;10.60;99.90;;;;;;5060796;28;20201;-38
2023/12/21 10:05:42;;;;;;;24.10;3.85;;;10.70;99.90;;;;;;5062131;28;20666;-42
2023/12/21 10:08:09;;;;;;;25.85;3.47;;;10.70;99.90;;;;;;5063222;28;20222;-41
2023/12/21 10:10:38;;;;;;;24.15;4.03;;;10.70;99.90;;;;;;5062085;28;20204;-39
2023/12/21 10:13:04;;;;;;;25.90;3.60;;;10.60;99.90;;;;;;5078110;28;20191;-38
2023/12/21 10:15:32;;;;;;;10.77;2.10;;;10.60;99.90;;;;;;5063467;28;20199;-41
2023/12/21 10:17:59;;;;;;;22.23;4.15;;;10.60;99.90;;;;;;5061829;28;20190;-40
2023/12/21 10:20:26;;;;;;;25.17;4.25;;;10.60;99.90;;;;;;5061402;28;20229;-42
2023/12/21 10:22:53;;;;;;;25.00;4.15;;;10.60;99.90;;;;;;5063144;28;20207;-41
2023/12/21 10:25:21;;;;;;;22.23;3.47;;;10.70;99.90;;;;;;5056094;28;20300;-40
2023/12/21 10:27:56;;;;;;;20.92;3.72;;;10.70;99.90;;;;;;5061715;28;20179;-42
2023/12/21 10:30:24;;;;;;;29.70;3.80;;;10.70;99.90;;;;;;5078166;28;20201;-39
2023/12/21 10:32:55;;;;;;;26.40;3.92;;;10.70;99.90;;;;;;5061827;28;20603;-40
2023/12/21 10:35:22;;;;;;;15.63;3.35;;;10.80;99.90;;;;;;5061539;28;20218;-40
2023/12/21 10:37:49;;;;;;;24.08;3.53;;;10.80;99.90;;;;;;5063018;28;20680;-38
2023/12/21 10:40:16;;;;;;;21.02;3.40;;;10.80;99.90;;;;;;5060058;28;20210;-40
2023/12/21 10:42:54;;;;;;;24.23;3.20;;;10.80;99.90;;;;;;5061253;28;20327;-40
2023/12/21 10:45:20;;;;;;;25.02;3.78;;;10.80;99.90;;;;;;5061608;28;20290;-39
2023/12/21 10:47:56;;;;;;;26.35;4.00;;;10.80;99.90;;;;;;5061323;28;20198;-40
2023/12/21 10:50:24;;;;;;;24.35;3.92;;;10.80;99.90;;;;;;5060216;28;20189;-40
2023/12/21 10:52:51;;;;;;;14.80;2.83;;;10.80;99.90;;;;;;5061178;28;20737;-40
2023/12/21 10:55:17;;;;;;;23.40;2.92;;;10.80;99.90;;;;;;5061064;28;20636;-42
2023/12/21 10:57:45;;;;;;;18.48;2.97;;;10.80;99.90;;;;;;5061433;28;20205;-41
2023/12/21 11:00:15;;;;;;;20.35;3.80;;;10.90;99.90;;;;;;5061659;28;20751;-41
2023/12/21 11:02:46;;;;;;;20.73;3.97;;;10.90;99.90;;;;;;5062931;28;20197;-42
2023/12/21 11:05:23;;;;;;;28.00;3.42;;;10.90;99.90;;;;;;5065646;28;20190;-39
2023/12/21 11:07:50;;;;;;;23.10;3.63;;;10.90;99.90;;;;;;5064208;28;20790;-40
2023/12/21 11:10:23;;;;;;;25.13;4.05;;;10.80;99.90;;;;;;5064926;28;20286;-38
2023/12/21 11:12:50;;;;;;;22.30;3.20;;;10.70;99.90;;;;;;5066410;28;20194;-39
2023/12/21 11:15:18;;;;;;;26.42;4.00;;;10.80;99.90;;;;;;5064793;28;20708;-40
2023/12/21 11:17:55;;;;;;;18.02;2.55;;;10.70;99.90;;;;;;5066103;28;20182;-40
2023/12/21 11:20:26;;;;;;;23.10;3.60;;;10.70;99.90;;;;;;5067605;28;20230;-41
2023/12/21 11:22:53;;;;;;;24.33;4.03;;;10.70;99.90;;;;;;5065089;28;20190;-40
2023/12/21 11:25:23;;;;;;;29.42;3.75;;;10.70;99.90;;;;;;5064237;28;20187;-40
2023/12/21 11:27:52;;;;;;;27.52;4.35;;;10.70;99.90;;;;;;5065086;28;20749;-40
2023/12/21 11:30:19;;;;;;;38.17;4.70;;;10.70;99.90;;;;;;5066133;28;20210;-41
2023/12/21 11:32:46;;;;;;;18.15;2.95;;;10.80;99.90;;;;;;5066498;28;20196;-44
2023/12/21 11:35:19;;;;;;;11.07;3.10;;;10.80;99.90;;;;;;5065428;28;20753;-44
2023/12/21 11:37:49;;;;;;;23.15;3.85;;;10.90;99.90;;;;;;5065456;28;20186;-42
2023/12/21 11:40:17;;;;;;;32.33;4.72;;;10.90;99.90;;;;;;5064880;28;20210;-41
2023/12/21 11:42:48;;;;;;;25.00;4.80;;;11.00;99.90;;;;;;5065468;28;20265;-43
2023/12/21 11:45:23;;;;;;;25.02;4.07;;;11.00;99.90;;;;;;5064709;28;20232;-42
2023/12/21 11:47:52;;;;;;;23.00;4.05;;;11.10;99.90;;;;;;5064910;28;20642;-42
2023/12/21 11:50:19;;;;;;;32.45;4.45;;;11.10;99.90;;;;;;5063564;28;20287;-42
2023/12/21 11:52:46;;;;;;;19.25;3.75;;;11.20;99.90;;;;;;5065591;28;20236;-41
2023/12/21 11:55:26;;;;;;;31.95;5.40;;;11.30;99.90;;;;;;5066204;28;20179;-41
2023/12/21 11:58:15;;;;;;;25.80;4.03;;;11.30;99.90;;;;;;5064913;28;20209;-43
2023/12/21 12:00:44;;;;;;;19.02;3.28;;;11.40;99.90;;;;;;5064113;28;20210;-41
2023/12/21 12:03:11;;;;;;;29.05;3.63;;;11.50;99.90;;;;;;5053173;28;20186;-44
2023/12/21 12:05:37;;;;;;;30.08;4.93;;;11.60;99.90;;;;;;5063866;28;20186;-43
2023/12/21 12:08:03;;;;;;;23.15;3.58;;;11.70;99.90;;;;;;5065282;28;20183;-41
2023/12/21 12:10:29;;;;;;;16.20;3.20;;;11.70;99.90;;;;;;5066338;28;20191;-44
2023/12/21 12:12:55;;;;;;;29.33;4.47;;;11.80;99.90;;;;;;5064475;28;20549;-40
2023/12/21 12:15:21;;;;;;;21.00;3.88;;;11.90;99.90;;;;;;5062796;28;20218;-43
2023/12/21 12:17:47;;;;;;;14.15;3.35;;;11.90;99.90;;;;;;5065080;28;20213;-46
2023/12/21 12:20:13;;;;;;;22.52;4.10;;;11.90;99.90;;;;;;5063896;28;20233;-45
2023/12/21 12:22:39;;;;;;;28.13;4.63;;;12.00;99.90;;;;;;5064832;28;20638;-42
2023/12/21 12:25:05;;;;;;;15.88;3.72;;;12.00;99.90;;;;;;5064789;28;20269;-44
2023/12/21 12:27:32;;;;;;;31.55;5.53;;;12.00;99.90;;;;;;5063753;28;20190;-43
2023/12/21 12:29:58;;;;;;;37.00;4.45;;;12.00;99.90;;;;;;5065046;28;20643;-41
2023/12/21 12:32:25;;;;;;;24.10;4.50;;;12.00;99.90;;;;;;5064917;28;20199;-45
2023/12/21 12:34:51;;;;;;;29.00;5.50;;;12.00;99.90;;;;;;5061679;28;20652;-44